sensor_id;sensor_type;location;lat;lon;timestamp;P1;durP1;ratioP1;P2;durP2;ratioP2
10715;SDS011;5409;42.620;23.316;2024-03-23T00:53:00;2.03;;;1.92;;
10715;SDS011;5409;42.620;23.316;2024-03-23T00:55:26;2.80;;;2.70;;
10715;SDS011;5409;42.620;23.316;2024-03-23T00:57:51;2.08;;;1.98;;
10715;SDS011;5409;42.620;23.316;2024-03-23T01:00:16;2.42;;;2.33;;
10715;SDS011;5409;42.620;23.316;2024-03-23T01:02:42;2.20;;;2.10;;
10715;SDS011;5409;42.620;23.316;2024-03-23T01:05:07;1.48;;;0.73;;
10715;SDS011;5409;42.620;23.316;2024-03-23T01:07:33;3.03;;;2.92;;
10715;SDS011;5409;42.620;23.316;2024-03-23T01:09:58;2.15;;;2.05;;
10715;SDS011;5409;42.620;23.316;2024-03-23T01:12:23;3.47;;;3.28;;
10715;SDS011;5409;42.620;23.316;2024-03-23T01:14:49;4.53;;;4.22;;
10715;SDS011;5409;42.620;23.316;2024-03-23T01:17:14;3.97;;;3.67;;
10715;SDS011;5409;42.620;23.316;2024-03-23T01:19:39;2.30;;;2.20;;
10715;SDS011;5409;42.620;23.316;2024-03-23T01:22:06;4.07;;;3.80;;
10715;SDS011;5409;42.620;23.316;2024-03-23T01:24:32;3.42;;;3.22;;
10715;SDS011;5409;42.620;23.316;2024-03-23T01:26:57;1.98;;;1.88;;
10715;SDS011;5409;42.620;23.316;2024-03-23T01:29:22;1.88;;;1.77;;
10715;SDS011;5409;42.620;23.316;2024-03-23T01:31:48;2.42;;;2.33;;
10715;SDS011;5409;42.620;23.316;2024-03-23T01:34:13;2.20;;;2.15;;
10715;SDS011;5409;42.620;23.316;2024-03-23T01:36:39;2.42;;;1.33;;
10715;SDS011;5409;42.620;23.316;2024-03-23T01:39:05;1.80;;;1.73;;
10715;SDS011;5409;42.620;23.316;2024-03-23T01:41:30;2.10;;;2.00;;
10715;SDS011;5409;42.620;23.316;2024-03-23T01:43:55;2.75;;;2.55;;
10715;SDS011;5409;42.620;23.316;2024-03-23T01:46:21;5.13;;;3.42;;
10715;SDS011;5409;42.620;23.316;2024-03-23T01:48:47;5.30;;;3.67;;
10715;SDS011;5409;42.620;23.316;2024-03-23T01:51:13;6.20;;;3.85;;
10715;SDS011;5409;42.620;23.316;2024-03-23T01:53:38;7.28;;;5.65;;
10715;SDS011;5409;42.620;23.316;2024-03-23T01:56:03;8.98;;;5.15;;
10715;SDS011;5409;42.620;23.316;2024-03-23T01:58:30;6.82;;;4.13;;
10715;SDS011;5409;42.620;23.316;2024-03-23T02:00:57;5.53;;;3.28;;
10715;SDS011;5409;42.620;23.316;2024-03-23T02:03:23;3.67;;;3.33;;
10715;SDS011;5409;42.620;23.316;2024-03-23T02:05:52;3.72;;;3.42;;
10715;SDS011;5409;42.620;23.316;2024-03-23T02:08:20;5.32;;;3.30;;
10715;SDS011;5409;42.620;23.316;2024-03-23T02:10:46;7.57;;;4.35;;
10715;SDS011;5409;42.620;23.316;2024-03-23T02:13:14;9.60;;;5.30;;
10715;SDS011;5409;42.620;23.316;2024-03-23T02:15:40;5.28;;;3.78;;
10715;SDS011;5409;42.620;23.316;2024-03-23T02:18:06;4.20;;;3.55;;
10715;SDS011;5409;42.620;23.316;2024-03-23T02:20:32;3.45;;;3.17;;
10715;SDS011;5409;42.620;23.316;2024-03-23T02:22:58;2.10;;;1.83;;
10715;SDS011;5409;42.620;23.316;2024-03-23T02:25:23;8.43;;;4.15;;
10715;SDS011;5409;42.620;23.316;2024-03-23T02:27:48;5.78;;;4.20;;
10715;SDS011;5409;42.620;23.316;2024-03-23T02:30:14;3.05;;;2.85;;
10715;SDS011;5409;42.620;23.316;2024-03-23T02:32:40;2.33;;;2.22;;
10715;SDS011;5409;42.620;23.316;2024-03-23T02:35:05;2.17;;;2.08;;
10715;SDS011;5409;42.620;23.316;2024-03-23T02:37:31;2.55;;;2.45;;
10715;SDS011;5409;42.620;23.316;2024-03-23T02:39:57;1.52;;;1.38;;
10715;SDS011;5409;42.620;23.316;2024-03-23T02:42:23;4.55;;;2.95;;
10715;SDS011;5409;42.620;23.316;2024-03-23T02:44:48;3.03;;;2.83;;
10715;SDS011;5409;42.620;23.316;2024-03-23T02:47:14;3.63;;;3.22;;
10715;SDS011;5409;42.620;23.316;2024-03-23T02:49:39;11.02;;;5.93;;
10715;SDS011;5409;42.620;23.316;2024-03-23T02:52:05;16.08;;;7.88;;
10715;SDS011;5409;42.620;23.316;2024-03-23T02:54:30;46.13;;;18.23;;
10715;SDS011;5409;42.620;23.316;2024-03-23T02:56:56;19.75;;;8.95;;
10715;SDS011;5409;42.620;23.316;2024-03-23T02:59:21;12.70;;;5.60;;
10715;SDS011;5409;42.620;23.316;2024-03-23T03:01:47;4.78;;;4.00;;
10715;SDS011;5409;42.620;23.316;2024-03-23T03:04:12;4.00;;;2.58;;
10715;SDS011;5409;42.620;23.316;2024-03-23T03:06:37;3.08;;;2.45;;
10715;SDS011;5409;42.620;23.316;2024-03-23T03:09:03;3.33;;;3.03;;
10715;SDS011;5409;42.620;23.316;2024-03-23T03:11:28;2.30;;;2.17;;
10715;SDS011;5409;42.620;23.316;2024-03-23T03:13:54;2.45;;;2.25;;
10715;SDS011;5409;42.620;23.316;2024-03-23T03:16:19;19.48;;;7.70;;
10715;SDS011;5409;42.620;23.316;2024-03-23T03:18:44;118.55;;;47.28;;
10715;SDS011;5409;42.620;23.316;2024-03-23T03:21:11;24.83;;;12.32;;
10715;SDS011;5409;42.620;23.316;2024-03-23T03:23:37;124.60;;;44.22;;
10715;SDS011;5409;42.620;23.316;2024-03-23T03:26:03;110.28;;;44.42;;
10715;SDS011;5409;42.620;23.316;2024-03-23T03:28:30;59.47;;;23.60;;
10715;SDS011;5409;42.620;23.316;2024-03-23T03:30:57;25.95;;;10.13;;
10715;SDS011;5409;42.620;23.316;2024-03-23T03:33:22;8.90;;;5.90;;
10715;SDS011;5409;42.620;23.316;2024-03-23T03:35:48;11.45;;;7.35;;
10715;SDS011;5409;42.620;23.316;2024-03-23T03:38:13;17.25;;;8.93;;
10715;SDS011;5409;42.620;23.316;2024-03-23T03:40:38;34.03;;;15.27;;
10715;SDS011;5409;42.620;23.316;2024-03-23T03:43:04;20.42;;;10.38;;
10715;SDS011;5409;42.620;23.316;2024-03-23T03:45:29;74.80;;;28.95;;
10715;SDS011;5409;42.620;23.316;2024-03-23T03:47:54;102.00;;;34.85;;
10715;SDS011;5409;42.620;23.316;2024-03-23T03:50:21;77.53;;;27.10;;
10715;SDS011;5409;42.620;23.316;2024-03-23T03:52:47;25.15;;;12.07;;
10715;SDS011;5409;42.620;23.316;2024-03-23T03:55:13;17.63;;;9.07;;
10715;SDS011;5409;42.620;23.316;2024-03-23T03:57:39;66.93;;;26.35;;
10715;SDS011;5409;42.620;23.316;2024-03-23T04:00:05;9.82;;;4.50;;
10715;SDS011;5409;42.620;23.316;2024-03-23T04:02:31;5.72;;;2.60;;
10715;SDS011;5409;42.620;23.316;2024-03-23T04:04:56;5.70;;;4.43;;
10715;SDS011;5409;42.620;23.316;2024-03-23T04:07:22;5.63;;;4.88;;
10715;SDS011;5409;42.620;23.316;2024-03-23T04:09:48;5.13;;;4.10;;
10715;SDS011;5409;42.620;23.316;2024-03-23T04:12:14;4.32;;;3.90;;
10715;SDS011;5409;42.620;23.316;2024-03-23T04:14:40;3.85;;;3.55;;
10715;SDS011;5409;42.620;23.316;2024-03-23T04:17:06;5.50;;;4.82;;
10715;SDS011;5409;42.620;23.316;2024-03-23T04:19:32;4.05;;;3.75;;
10715;SDS011;5409;42.620;23.316;2024-03-23T04:21:57;4.38;;;4.00;;
10715;SDS011;5409;42.620;23.316;2024-03-23T04:24:22;3.97;;;2.13;;
10715;SDS011;5409;42.620;23.316;2024-03-23T04:26:48;4.97;;;4.43;;
10715;SDS011;5409;42.620;23.316;2024-03-23T04:29:13;4.78;;;3.75;;
10715;SDS011;5409;42.620;23.316;2024-03-23T04:31:38;4.88;;;4.47;;
10715;SDS011;5409;42.620;23.316;2024-03-23T04:34:04;5.68;;;4.93;;
10715;SDS011;5409;42.620;23.316;2024-03-23T04:36:29;3.85;;;3.55;;
10715;SDS011;5409;42.620;23.316;2024-03-23T04:38:56;10.85;;;9.45;;
10715;SDS011;5409;42.620;23.316;2024-03-23T04:41:22;7.00;;;5.10;;
10715;SDS011;5409;42.620;23.316;2024-03-23T04:43:47;5.70;;;4.75;;
10715;SDS011;5409;42.620;23.316;2024-03-23T04:46:12;5.03;;;4.32;;
10715;SDS011;5409;42.620;23.316;2024-03-23T04:48:38;4.15;;;3.83;;
10715;SDS011;5409;42.620;23.316;2024-03-23T04:51:03;3.28;;;2.95;;
10715;SDS011;5409;42.620;23.316;2024-03-23T04:53:29;3.53;;;3.22;;
10715;SDS011;5409;42.620;23.316;2024-03-23T04:55:57;4.25;;;3.85;;
10715;SDS011;5409;42.620;23.316;2024-03-23T04:58:24;4.70;;;3.90;;
10715;SDS011;5409;42.620;23.316;2024-03-23T05:00:54;5.47;;;4.90;;
10715;SDS011;5409;42.620;23.316;2024-03-23T05:03:22;5.32;;;4.30;;
10715;SDS011;5409;42.620;23.316;2024-03-23T05:05:48;4.18;;;3.67;;
10715;SDS011;5409;42.620;23.316;2024-03-23T05:08:14;4.18;;;3.72;;
10715;SDS011;5409;42.620;23.316;2024-03-23T05:10:41;3.47;;;3.17;;
10715;SDS011;5409;42.620;23.316;2024-03-23T05:13:07;3.67;;;3.35;;
10715;SDS011;5409;42.620;23.316;2024-03-23T05:15:32;4.18;;;3.55;;
10715;SDS011;5409;42.620;23.316;2024-03-23T05:17:58;11.07;;;4.95;;
10715;SDS011;5409;42.620;23.316;2024-03-23T05:20:23;5.72;;;3.80;;
10715;SDS011;5409;42.620;23.316;2024-03-23T05:22:49;4.82;;;4.20;;
10715;SDS011;5409;42.620;23.316;2024-03-23T05:25:14;6.47;;;4.60;;
10715;SDS011;5409;42.620;23.316;2024-03-23T05:27:41;4.97;;;4.53;;
10715;SDS011;5409;42.620;23.316;2024-03-23T05:30:06;9.57;;;6.18;;
10715;SDS011;5409;42.620;23.316;2024-03-23T05:32:33;6.30;;;5.05;;
10715;SDS011;5409;42.620;23.316;2024-03-23T05:34:59;4.47;;;4.07;;
10715;SDS011;5409;42.620;23.316;2024-03-23T05:37:24;6.93;;;4.55;;
10715;SDS011;5409;42.620;23.316;2024-03-23T05:39:50;6.82;;;4.88;;
10715;SDS011;5409;42.620;23.316;2024-03-23T05:42:16;4.75;;;4.18;;
10715;SDS011;5409;42.620;23.316;2024-03-23T05:44:45;4.95;;;3.83;;
10715;SDS011;5409;42.620;23.316;2024-03-23T05:47:11;3.60;;;3.35;;
10715;SDS011;5409;42.620;23.316;2024-03-23T05:49:39;5.18;;;4.70;;
10715;SDS011;5409;42.620;23.316;2024-03-23T05:52:06;6.78;;;5.20;;
10715;SDS011;5409;42.620;23.316;2024-03-23T05:54:32;7.45;;;5.22;;
10715;SDS011;5409;42.620;23.316;2024-03-23T05:56:58;7.60;;;6.03;;
10715;SDS011;5409;42.620;23.316;2024-03-23T05:59:24;13.02;;;7.80;;
10715;SDS011;5409;42.620;23.316;2024-03-23T06:01:49;18.20;;;9.70;;
10715;SDS011;5409;42.620;23.316;2024-03-23T06:04:15;16.05;;;9.90;;
10715;SDS011;5409;42.620;23.316;2024-03-23T06:06:40;11.50;;;7.35;;
10715;SDS011;5409;42.620;23.316;2024-03-23T06:09:06;9.50;;;5.68;;
10715;SDS011;5409;42.620;23.316;2024-03-23T06:11:31;6.78;;;5.85;;
10715;SDS011;5409;42.620;23.316;2024-03-23T06:13:56;9.50;;;6.00;;
10715;SDS011;5409;42.620;23.316;2024-03-23T06:16:22;12.45;;;7.15;;
10715;SDS011;5409;42.620;23.316;2024-03-23T06:18:52;9.48;;;6.75;;
10715;SDS011;5409;42.620;23.316;2024-03-23T06:21:18;7.82;;;5.78;;
10715;SDS011;5409;42.620;23.316;2024-03-23T06:23:43;10.63;;;5.57;;
10715;SDS011;5409;42.620;23.316;2024-03-23T06:26:15;7.95;;;4.82;;
10715;SDS011;5409;42.620;23.316;2024-03-23T06:28:41;9.68;;;6.50;;
10715;SDS011;5409;42.620;23.316;2024-03-23T06:31:10;9.55;;;6.28;;
10715;SDS011;5409;42.620;23.316;2024-03-23T06:33:35;9.93;;;6.85;;
10715;SDS011;5409;42.620;23.316;2024-03-23T06:36:01;9.98;;;6.35;;
10715;SDS011;5409;42.620;23.316;2024-03-23T06:38:28;14.30;;;6.85;;
10715;SDS011;5409;42.620;23.316;2024-03-23T06:40:53;12.68;;;5.85;;
10715;SDS011;5409;42.620;23.316;2024-03-23T06:43:18;13.82;;;7.28;;
10715;SDS011;5409;42.620;23.316;2024-03-23T06:45:44;11.00;;;7.20;;
10715;SDS011;5409;42.620;23.316;2024-03-23T06:48:09;10.18;;;7.00;;
10715;SDS011;5409;42.620;23.316;2024-03-23T06:50:35;12.27;;;8.13;;
10715;SDS011;5409;42.620;23.316;2024-03-23T06:53:00;12.65;;;7.75;;
10715;SDS011;5409;42.620;23.316;2024-03-23T06:55:27;11.18;;;7.47;;
10715;SDS011;5409;42.620;23.316;2024-03-23T06:57:53;7.43;;;6.65;;
10715;SDS011;5409;42.620;23.316;2024-03-23T07:00:18;12.82;;;6.97;;
10715;SDS011;5409;42.620;23.316;2024-03-23T07:02:44;12.27;;;7.45;;
10715;SDS011;5409;42.620;23.316;2024-03-23T07:05:10;12.15;;;8.38;;
10715;SDS011;5409;42.620;23.316;2024-03-23T07:07:35;8.80;;;7.10;;
10715;SDS011;5409;42.620;23.316;2024-03-23T07:10:01;11.27;;;7.50;;
10715;SDS011;5409;42.620;23.316;2024-03-23T07:12:28;9.02;;;7.43;;
10715;SDS011;5409;42.620;23.316;2024-03-23T07:14:53;10.25;;;7.18;;
10715;SDS011;5409;42.620;23.316;2024-03-23T07:17:18;8.57;;;6.88;;
10715;SDS011;5409;42.620;23.316;2024-03-23T07:19:44;11.40;;;7.35;;
10715;SDS011;5409;42.620;23.316;2024-03-23T07:22:09;12.05;;;7.15;;
10715;SDS011;5409;42.620;23.316;2024-03-23T07:24:35;11.93;;;7.80;;
10715;SDS011;5409;42.620;23.316;2024-03-23T07:27:00;12.32;;;8.82;;
10715;SDS011;5409;42.620;23.316;2024-03-23T07:29:27;10.95;;;7.78;;
10715;SDS011;5409;42.620;23.316;2024-03-23T07:31:52;15.55;;;7.65;;
10715;SDS011;5409;42.620;23.316;2024-03-23T07:34:18;11.27;;;6.93;;
10715;SDS011;5409;42.620;23.316;2024-03-23T07:36:43;12.07;;;7.22;;
10715;SDS011;5409;42.620;23.316;2024-03-23T07:39:09;12.48;;;6.28;;
10715;SDS011;5409;42.620;23.316;2024-03-23T07:41:34;10.18;;;7.82;;
10715;SDS011;5409;42.620;23.316;2024-03-23T07:44:00;14.25;;;7.40;;
10715;SDS011;5409;42.620;23.316;2024-03-23T07:46:25;10.45;;;8.23;;
10715;SDS011;5409;42.620;23.316;2024-03-23T07:48:51;12.23;;;7.45;;
10715;SDS011;5409;42.620;23.316;2024-03-23T07:51:20;11.07;;;7.53;;
10715;SDS011;5409;42.620;23.316;2024-03-23T07:53:47;13.88;;;7.75;;
10715;SDS011;5409;42.620;23.316;2024-03-23T07:56:13;12.35;;;7.78;;
10715;SDS011;5409;42.620;23.316;2024-03-23T07:58:43;14.68;;;8.00;;
10715;SDS011;5409;42.620;23.316;2024-03-23T08:01:10;14.70;;;8.20;;
10715;SDS011;5409;42.620;23.316;2024-03-23T08:03:39;12.82;;;7.80;;
10715;SDS011;5409;42.620;23.316;2024-03-23T08:06:09;11.18;;;7.45;;
10715;SDS011;5409;42.620;23.316;2024-03-23T08:08:39;12.90;;;8.00;;
10715;SDS011;5409;42.620;23.316;2024-03-23T08:11:05;14.02;;;8.35;;
10715;SDS011;5409;42.620;23.316;2024-03-23T08:13:31;14.40;;;9.15;;
10715;SDS011;5409;42.620;23.316;2024-03-23T08:16:00;18.58;;;8.63;;
10715;SDS011;5409;42.620;23.316;2024-03-23T08:18:26;15.50;;;9.73;;
10715;SDS011;5409;42.620;23.316;2024-03-23T08:21:02;12.38;;;8.27;;
10715;SDS011;5409;42.620;23.316;2024-03-23T08:23:29;12.43;;;8.10;;
10715;SDS011;5409;42.620;23.316;2024-03-23T08:26:07;16.92;;;7.93;;
10715;SDS011;5409;42.620;23.316;2024-03-23T08:28:34;12.85;;;8.00;;
10715;SDS011;5409;42.620;23.316;2024-03-23T08:31:03;17.75;;;9.55;;
10715;SDS011;5409;42.620;23.316;2024-03-23T08:33:30;15.48;;;7.22;;
10715;SDS011;5409;42.620;23.316;2024-03-23T08:36:03;11.95;;;7.60;;
10715;SDS011;5409;42.620;23.316;2024-03-23T08:38:29;10.77;;;7.32;;
10715;SDS011;5409;42.620;23.316;2024-03-23T08:41:02;12.40;;;8.60;;
10715;SDS011;5409;42.620;23.316;2024-03-23T08:43:30;12.70;;;7.35;;
10715;SDS011;5409;42.620;23.316;2024-03-23T08:46:09;12.05;;;6.97;;
10715;SDS011;5409;42.620;23.316;2024-03-23T08:48:36;10.15;;;8.15;;
10715;SDS011;5409;42.620;23.316;2024-03-23T08:51:03;10.82;;;8.75;;
10715;SDS011;5409;42.620;23.316;2024-03-23T08:53:29;12.32;;;7.68;;
10715;SDS011;5409;42.620;23.316;2024-03-23T08:55:58;11.68;;;7.45;;
10715;SDS011;5409;42.620;23.316;2024-03-23T08:58:26;11.27;;;6.68;;
10715;SDS011;5409;42.620;23.316;2024-03-23T09:00:52;10.55;;;6.72;;
10715;SDS011;5409;42.620;23.316;2024-03-23T09:03:21;11.75;;;8.07;;
10715;SDS011;5409;42.620;23.316;2024-03-23T09:05:49;12.32;;;7.25;;
10715;SDS011;5409;42.620;23.316;2024-03-23T09:08:15;8.95;;;6.85;;
10715;SDS011;5409;42.620;23.316;2024-03-23T09:10:41;11.98;;;7.70;;
10715;SDS011;5409;42.620;23.316;2024-03-23T09:13:07;14.75;;;7.43;;
10715;SDS011;5409;42.620;23.316;2024-03-23T09:15:36;12.30;;;8.18;;
10715;SDS011;5409;42.620;23.316;2024-03-23T09:18:02;9.20;;;7.30;;
10715;SDS011;5409;42.620;23.316;2024-03-23T09:20:28;7.22;;;6.43;;
10715;SDS011;5409;42.620;23.316;2024-03-23T09:22:54;10.85;;;7.18;;
10715;SDS011;5409;42.620;23.316;2024-03-23T09:25:19;10.60;;;6.80;;
10715;SDS011;5409;42.620;23.316;2024-03-23T09:27:46;10.73;;;7.70;;
10715;SDS011;5409;42.620;23.316;2024-03-23T09:30:12;9.23;;;6.63;;
10715;SDS011;5409;42.620;23.316;2024-03-23T09:32:38;12.15;;;7.30;;
10715;SDS011;5409;42.620;23.316;2024-03-23T09:35:04;10.88;;;6.60;;
10715;SDS011;5409;42.620;23.316;2024-03-23T09:37:30;7.65;;;6.40;;
10715;SDS011;5409;42.620;23.316;2024-03-23T09:39:55;8.65;;;6.72;;
10715;SDS011;5409;42.620;23.316;2024-03-23T09:42:20;14.45;;;7.25;;
10715;SDS011;5409;42.620;23.316;2024-03-23T09:44:46;7.50;;;5.10;;
10715;SDS011;5409;42.620;23.316;2024-03-23T09:47:14;7.88;;;5.30;;
10715;SDS011;5409;42.620;23.316;2024-03-23T09:49:39;5.95;;;5.35;;
10715;SDS011;5409;42.620;23.316;2024-03-23T09:52:05;7.45;;;6.10;;
10715;SDS011;5409;42.620;23.316;2024-03-23T09:54:31;8.00;;;6.72;;
10715;SDS011;5409;42.620;23.316;2024-03-23T09:56:57;8.13;;;6.13;;
10715;SDS011;5409;42.620;23.316;2024-03-23T09:59:23;7.22;;;5.53;;
10715;SDS011;5409;42.620;23.316;2024-03-23T10:01:51;6.43;;;5.38;;
10715;SDS011;5409;42.620;23.316;2024-03-23T10:04:40;6.57;;;5.85;;
10715;SDS011;5409;42.620;23.316;2024-03-23T10:07:13;10.82;;;7.18;;
10715;SDS011;5409;42.620;23.316;2024-03-23T10:09:39;11.02;;;6.55;;
10715;SDS011;5409;42.620;23.316;2024-03-23T10:12:12;12.52;;;7.47;;
10715;SDS011;5409;42.620;23.316;2024-03-23T10:14:39;13.05;;;6.65;;
10715;SDS011;5409;42.620;23.316;2024-03-23T10:19:47;21.20;;;15.05;;
10715;SDS011;5409;42.620;23.316;2024-03-23T10:22:17;7.85;;;6.72;;
10715;SDS011;5409;42.620;23.316;2024-03-23T10:24:45;8.55;;;7.03;;
10715;SDS011;5409;42.620;23.316;2024-03-23T10:27:17;10.50;;;5.60;;
10715;SDS011;5409;42.620;23.316;2024-03-23T10:29:44;8.27;;;5.88;;
10715;SDS011;5409;42.620;23.316;2024-03-23T10:32:10;7.47;;;6.70;;
10715;SDS011;5409;42.620;23.316;2024-03-23T10:34:36;18.00;;;10.48;;
10715;SDS011;5409;42.620;23.316;2024-03-23T10:37:03;9.85;;;6.85;;
10715;SDS011;5409;42.620;23.316;2024-03-23T10:39:30;10.82;;;6.10;;
10715;SDS011;5409;42.620;23.316;2024-03-23T10:42:03;7.82;;;5.25;;
10715;SDS011;5409;42.620;23.316;2024-03-23T10:44:29;11.90;;;7.15;;
10715;SDS011;5409;42.620;23.316;2024-03-23T10:46:56;12.20;;;7.05;;
10715;SDS011;5409;42.620;23.316;2024-03-23T10:49:28;10.45;;;7.35;;
10715;SDS011;5409;42.620;23.316;2024-03-23T10:52:04;6.72;;;5.60;;
10715;SDS011;5409;42.620;23.316;2024-03-23T10:54:31;7.15;;;5.60;;
10715;SDS011;5409;42.620;23.316;2024-03-23T10:59:34;6.15;;;5.47;;
10715;SDS011;5409;42.620;23.316;2024-03-23T11:02:02;10.52;;;6.68;;
10715;SDS011;5409;42.620;23.316;2024-03-23T11:04:38;7.10;;;5.82;;
10715;SDS011;5409;42.620;23.316;2024-03-23T11:09:51;6.95;;;6.25;;
10715;SDS011;5409;42.620;23.316;2024-03-23T11:14:55;8.73;;;6.28;;
10715;SDS011;5409;42.620;23.316;2024-03-23T11:17:24;6.95;;;5.10;;
10715;SDS011;5409;42.620;23.316;2024-03-23T11:19:53;7.97;;;5.97;;
10715;SDS011;5409;42.620;23.316;2024-03-23T11:25:02;9.00;;;7.25;;
10715;SDS011;5409;42.620;23.316;2024-03-23T11:27:29;7.85;;;6.15;;
10715;SDS011;5409;42.620;23.316;2024-03-23T11:29:54;11.82;;;5.65;;
10715;SDS011;5409;42.620;23.316;2024-03-23T11:32:19;6.45;;;5.13;;
10715;SDS011;5409;42.620;23.316;2024-03-23T11:34:46;7.82;;;5.00;;
10715;SDS011;5409;42.620;23.316;2024-03-23T11:37:11;7.95;;;5.38;;
10715;SDS011;5409;42.620;23.316;2024-03-23T11:39:36;12.02;;;5.15;;
10715;SDS011;5409;42.620;23.316;2024-03-23T11:42:02;6.95;;;5.28;;
10715;SDS011;5409;42.620;23.316;2024-03-23T11:44:27;7.75;;;5.15;;
10715;SDS011;5409;42.620;23.316;2024-03-23T11:46:53;5.93;;;5.35;;
10715;SDS011;5409;42.620;23.316;2024-03-23T11:49:22;6.85;;;5.70;;
10715;SDS011;5409;42.620;23.316;2024-03-23T11:51:48;9.27;;;5.55;;
10715;SDS011;5409;42.620;23.316;2024-03-23T11:54:14;6.90;;;5.75;;
10715;SDS011;5409;42.620;23.316;2024-03-23T11:56:39;6.57;;;5.35;;
10715;SDS011;5409;42.620;23.316;2024-03-23T11:59:06;6.32;;;4.60;;
10715;SDS011;5409;42.620;23.316;2024-03-23T12:01:32;10.25;;;5.60;;
10715;SDS011;5409;42.620;23.316;2024-03-23T12:03:58;7.18;;;5.45;;
10715;SDS011;5409;42.620;23.316;2024-03-23T12:06:23;12.52;;;7.53;;
10715;SDS011;5409;42.620;23.316;2024-03-23T12:08:48;20.13;;;12.18;;
10715;SDS011;5409;42.620;23.316;2024-03-23T12:11:17;6.47;;;5.82;;
10715;SDS011;5409;42.620;23.316;2024-03-23T12:13:43;7.65;;;5.22;;
10715;SDS011;5409;42.620;23.316;2024-03-23T12:16:18;5.40;;;4.53;;
10715;SDS011;5409;42.620;23.316;2024-03-23T12:18:48;7.07;;;5.10;;
10715;SDS011;5409;42.620;23.316;2024-03-23T12:21:14;4.78;;;4.03;;
10715;SDS011;5409;42.620;23.316;2024-03-23T12:23:41;7.47;;;3.88;;
10715;SDS011;5409;42.620;23.316;2024-03-23T12:26:09;4.38;;;3.65;;
10715;SDS011;5409;42.620;23.316;2024-03-23T12:28:35;5.53;;;4.15;;
10715;SDS011;5409;42.620;23.316;2024-03-23T12:31:02;3.78;;;3.55;;
10715;SDS011;5409;42.620;23.316;2024-03-23T12:33:28;6.90;;;4.15;;
10715;SDS011;5409;42.620;23.316;2024-03-23T12:35:53;6.60;;;5.07;;
10715;SDS011;5409;42.620;23.316;2024-03-23T12:38:18;5.10;;;4.07;;
10715;SDS011;5409;42.620;23.316;2024-03-23T12:40:47;4.93;;;4.53;;
10715;SDS011;5409;42.620;23.316;2024-03-23T12:43:13;6.65;;;4.10;;
10715;SDS011;5409;42.620;23.316;2024-03-23T12:45:39;3.80;;;3.50;;
10715;SDS011;5409;42.620;23.316;2024-03-23T12:48:05;3.55;;;2.90;;
10715;SDS011;5409;42.620;23.316;2024-03-23T12:50:30;3.15;;;2.92;;
10715;SDS011;5409;42.620;23.316;2024-03-23T12:52:56;4.28;;;3.58;;
10715;SDS011;5409;42.620;23.316;2024-03-23T12:55:21;4.70;;;4.28;;
10715;SDS011;5409;42.620;23.316;2024-03-23T12:57:46;5.25;;;3.10;;
10715;SDS011;5409;42.620;23.316;2024-03-23T13:00:12;5.63;;;5.05;;
10715;SDS011;5409;42.620;23.316;2024-03-23T13:02:38;5.07;;;4.13;;
10715;SDS011;5409;42.620;23.316;2024-03-23T13:05:04;6.15;;;4.57;;
10715;SDS011;5409;42.620;23.316;2024-03-23T13:07:30;1.25;;;1.15;;
10715;SDS011;5409;42.620;23.316;2024-03-23T13:09:55;1.42;;;1.33;;
10715;SDS011;5409;42.620;23.316;2024-03-23T13:12:21;1.13;;;1.02;;
10715;SDS011;5409;42.620;23.316;2024-03-23T13:14:48;0.90;;;0.70;;
10715;SDS011;5409;42.620;23.316;2024-03-23T13:17:14;1.42;;;1.38;;
10715;SDS011;5409;42.620;23.316;2024-03-23T13:19:39;0.82;;;0.82;;
10715;SDS011;5409;42.620;23.316;2024-03-23T13:22:05;1.00;;;1.00;;
10715;SDS011;5409;42.620;23.316;2024-03-23T13:24:31;1.13;;;1.02;;
10715;SDS011;5409;42.620;23.316;2024-03-23T13:26:56;1.23;;;1.23;;
10715;SDS011;5409;42.620;23.316;2024-03-23T13:29:23;0.98;;;0.90;;
10715;SDS011;5409;42.620;23.316;2024-03-23T13:31:50;1.25;;;1.25;;
10715;SDS011;5409;42.620;23.316;2024-03-23T13:34:16;2.42;;;1.40;;
10715;SDS011;5409;42.620;23.316;2024-03-23T13:36:42;1.10;;;1.10;;
10715;SDS011;5409;42.620;23.316;2024-03-23T13:39:09;1.20;;;1.20;;
10715;SDS011;5409;42.620;23.316;2024-03-23T13:41:44;1.65;;;0.90;;
10715;SDS011;5409;42.620;23.316;2024-03-23T13:44:13;0.95;;;0.95;;
10715;SDS011;5409;42.620;23.316;2024-03-23T13:46:41;1.40;;;1.08;;
10715;SDS011;5409;42.620;23.316;2024-03-23T13:49:08;1.15;;;1.15;;
10715;SDS011;5409;42.620;23.316;2024-03-23T13:51:48;1.05;;;0.70;;
10715;SDS011;5409;42.620;23.316;2024-03-23T13:54:14;1.77;;;1.67;;
10715;SDS011;5409;42.620;23.316;2024-03-23T13:56:39;0.52;;;0.50;;
10715;SDS011;5409;42.620;23.316;2024-03-23T13:59:04;1.83;;;1.38;;
10715;SDS011;5409;42.620;23.316;2024-03-23T14:01:30;1.40;;;1.40;;
10715;SDS011;5409;42.620;23.316;2024-03-23T14:03:56;0.40;;;0.40;;
10715;SDS011;5409;42.620;23.316;2024-03-23T14:06:22;1.85;;;1.27;;
10715;SDS011;5409;42.620;23.316;2024-03-23T14:08:49;1.30;;;1.17;;
10715;SDS011;5409;42.620;23.316;2024-03-23T14:11:14;1.50;;;1.40;;
10715;SDS011;5409;42.620;23.316;2024-03-23T14:13:40;0.50;;;0.50;;
10715;SDS011;5409;42.620;23.316;2024-03-23T14:16:05;1.33;;;0.93;;
10715;SDS011;5409;42.620;23.316;2024-03-23T14:18:31;1.33;;;1.33;;
10715;SDS011;5409;42.620;23.316;2024-03-23T14:20:57;1.20;;;1.20;;
10715;SDS011;5409;42.620;23.316;2024-03-23T14:23:28;1.52;;;1.42;;
10715;SDS011;5409;42.620;23.316;2024-03-23T14:25:54;1.20;;;1.20;;
10715;SDS011;5409;42.620;23.316;2024-03-23T14:28:22;1.63;;;1.52;;
10715;SDS011;5409;42.620;23.316;2024-03-23T14:30:49;1.60;;;1.60;;
10715;SDS011;5409;42.620;23.316;2024-03-23T14:33:15;1.10;;;1.10;;
10715;SDS011;5409;42.620;23.316;2024-03-23T14:35:41;1.23;;;1.23;;
10715;SDS011;5409;42.620;23.316;2024-03-23T14:38:06;1.33;;;1.33;;
10715;SDS011;5409;42.620;23.316;2024-03-23T14:40:32;1.30;;;1.30;;
10715;SDS011;5409;42.620;23.316;2024-03-23T14:42:58;1.17;;;1.17;;
10715;SDS011;5409;42.620;23.316;2024-03-23T14:45:23;1.83;;;1.73;;
10715;SDS011;5409;42.620;23.316;2024-03-23T14:47:50;1.77;;;1.67;;
10715;SDS011;5409;42.620;23.316;2024-03-23T14:50:16;1.80;;;1.67;;
10715;SDS011;5409;42.620;23.316;2024-03-23T14:52:44;1.35;;;1.35;;
10715;SDS011;5409;42.620;23.316;2024-03-23T14:55:10;2.97;;;1.48;;
10715;SDS011;5409;42.620;23.316;2024-03-23T14:57:38;1.58;;;1.48;;
10715;SDS011;5409;42.620;23.316;2024-03-23T15:00:06;2.00;;;1.58;;
10715;SDS011;5409;42.620;23.316;2024-03-23T15:02:38;2.08;;;1.35;;
10715;SDS011;5409;42.620;23.316;2024-03-23T15:05:04;1.50;;;1.35;;
10715;SDS011;5409;42.620;23.316;2024-03-23T15:07:35;1.63;;;1.52;;
10715;SDS011;5409;42.620;23.316;2024-03-23T15:10:03;3.67;;;1.50;;
10715;SDS011;5409;42.620;23.316;2024-03-23T15:12:29;1.42;;;1.33;;
10715;SDS011;5409;42.620;23.316;2024-03-23T15:14:57;1.30;;;1.30;;
10715;SDS011;5409;42.620;23.316;2024-03-23T15:17:22;1.63;;;1.52;;
10715;SDS011;5409;42.620;23.316;2024-03-23T15:19:47;1.25;;;1.20;;
10715;SDS011;5409;42.620;23.316;2024-03-23T15:22:13;1.63;;;1.52;;
10715;SDS011;5409;42.620;23.316;2024-03-23T15:24:38;2.40;;;1.60;;
10715;SDS011;5409;42.620;23.316;2024-03-23T15:27:03;1.77;;;1.73;;
10715;SDS011;5409;42.620;23.316;2024-03-23T15:29:29;2.92;;;1.77;;
10715;SDS011;5409;42.620;23.316;2024-03-23T15:31:54;1.35;;;1.35;;
10715;SDS011;5409;42.620;23.316;2024-03-23T15:34:20;4.70;;;3.15;;
10715;SDS011;5409;42.620;23.316;2024-03-23T15:36:49;1.85;;;1.75;;
10715;SDS011;5409;42.620;23.316;2024-03-23T15:39:18;2.25;;;2.15;;
10715;SDS011;5409;42.620;23.316;2024-03-23T15:41:44;1.83;;;1.73;;
10715;SDS011;5409;42.620;23.316;2024-03-23T15:44:10;1.77;;;1.67;;